createdAt,value
2019-04-01T00:00:36.688Z,0.32
2019-04-01T00:03:06.747Z,0.49
2019-04-01T00:05:35.425Z,0.65
2019-04-01T00:08:04.101Z,0.49
2019-04-01T00:10:32.825Z,0.36
2019-04-01T00:13:01.471Z,0.52
2019-04-01T00:15:30.137Z,0.46
2019-04-01T00:17:58.823Z,0.48
2019-04-01T00:20:27.480Z,0.45
2019-04-01T00:22:56.230Z,0.48
2019-04-01T00:25:24.977Z,0.39
2019-04-01T00:27:53.629Z,0.36
2019-04-01T00:30:22.276Z,0.37
2019-04-01T00:32:50.946Z,0.09
2019-04-01T00:35:19.652Z,-0.22
2019-04-01T00:37:48.307Z,-0.24
2019-04-01T00:40:17.135Z,-0.44
2019-04-01T00:42:56.414Z,-0.34
2019-04-01T00:45:25.501Z,-0.46
2019-04-01T00:47:54.147Z,-0.44
2019-04-01T00:50:22.981Z,-0.39
2019-04-01T00:52:51.651Z,-0.68
2019-04-01T00:55:20.312Z,-0.87
2019-04-01T00:57:48.994Z,-0.86
2019-04-01T01:00:19.072Z,-0.84
2019-04-01T01:02:47.728Z,-0.87
2019-04-01T01:05:16.402Z,-0.80
2019-04-01T01:07:45.078Z,-0.81
2019-04-01T01:10:14.019Z,-0.68
2019-04-01T01:12:42.679Z,-0.65
2019-04-01T01:15:11.505Z,-0.80
2019-04-01T01:17:40.513Z,-0.70
2019-04-01T01:20:09.283Z,-0.73
2019-04-01T01:22:37.935Z,-0.89
2019-04-01T01:25:06.700Z,-0.87
2019-04-01T01:27:35.348Z,-0.92
2019-04-01T01:30:04.304Z,-0.96
2019-04-01T01:32:32.976Z,-0.93
2019-04-01T01:35:01.635Z,-1.01
2019-04-01T01:37:30.395Z,-1.04
2019-04-01T01:39:59.045Z,-1.02
2019-04-01T01:42:27.777Z,-0.97
2019-04-01T01:44:56.372Z,-0.95
2019-04-01T01:47:25.040Z,-0.86
2019-04-01T01:49:53.694Z,-0.89
2019-04-01T01:52:22.368Z,-0.85
2019-04-01T01:54:51.021Z,-0.84
2019-04-01T01:57:19.680Z,-0.88
2019-04-01T01:59:48.410Z,-0.92
2019-04-01T02:02:17.010Z,-0.96
2019-04-01T02:04:45.681Z,-0.95
2019-04-01T02:07:14.358Z,-0.99
2019-04-01T02:09:43.023Z,-1.07
2019-04-01T02:12:11.686Z,-1.06
2019-04-01T02:14:40.375Z,-1.02
2019-04-01T02:17:09.054Z,-1.05
2019-04-01T02:19:37.709Z,-1.09
2019-04-01T02:22:06.380Z,-1.03
2019-04-01T02:24:35.108Z,-0.92
2019-04-01T02:27:03.841Z,-0.88
2019-04-01T02:29:32.525Z,-0.96
2019-04-01T02:32:01.214Z,-1.07
2019-04-01T02:34:29.925Z,-1.11
2019-04-01T02:36:58.530Z,-1.12
2019-04-01T02:39:27.205Z,-1.14
2019-04-01T02:41:55.971Z,-1.04
2019-04-01T02:44:24.874Z,-1.14
2019-04-01T02:46:53.527Z,-1.39
2019-04-01T02:49:22.212Z,-1.50
2019-04-01T02:51:50.872Z,-1.59
2019-04-01T02:54:19.540Z,-1.72
2019-04-01T02:56:48.211Z,-2.01
2019-04-01T02:59:16.862Z,-1.94
2019-04-01T03:01:45.519Z,-1.95
2019-04-01T03:04:14.225Z,-1.94
2019-04-01T03:06:42.886Z,-1.93
2019-04-01T03:09:11.605Z,-1.77
2019-04-01T03:11:40.280Z,-1.83
2019-04-01T03:14:08.934Z,-1.64
2019-04-01T03:16:37.712Z,-1.72
2019-04-01T03:19:06.456Z,-1.63
2019-04-01T03:21:35.110Z,-1.49
2019-04-01T03:24:03.861Z,-1.61
2019-04-01T03:26:32.515Z,-1.66
2019-04-01T03:29:01.192Z,-1.67
2019-04-01T03:31:29.847Z,-1.65
2019-04-01T03:33:58.510Z,-1.53
2019-04-01T03:36:27.185Z,-1.61
2019-04-01T03:38:55.846Z,-1.76
2019-04-01T03:41:24.515Z,-1.76
2019-04-01T03:43:53.179Z,-1.78
2019-04-01T03:46:21.839Z,-1.70
2019-04-01T03:48:50.492Z,-1.68
2019-04-01T03:51:19.183Z,-1.62
2019-04-01T03:53:47.930Z,-1.79
2019-04-01T03:56:16.592Z,-2.02
2019-04-01T03:58:45.273Z,-2.06
2019-04-01T04:01:13.937Z,-2.03
2019-04-01T04:03:42.593Z,-1.86
2019-04-01T04:06:11.282Z,-1.98
2019-04-01T04:08:39.952Z,-2.07
2019-04-01T04:11:08.609Z,-2.08
2019-04-01T04:13:37.298Z,-2.48
2019-04-01T04:16:05.960Z,-2.78
2019-04-01T04:18:34.633Z,-2.76
2019-04-01T04:21:03.367Z,-2.76
2019-04-01T04:23:32.009Z,-2.72
2019-04-01T04:26:00.675Z,-2.43
2019-04-01T04:28:29.364Z,-2.51
2019-04-01T04:30:58.024Z,-2.78
2019-04-01T04:33:26.687Z,-2.78
2019-04-01T04:35:55.410Z,-2.90
2019-04-01T04:38:24.076Z,-2.90
2019-04-01T04:40:52.738Z,-3.04
2019-04-01T04:43:21.413Z,-2.97
2019-04-01T04:45:50.138Z,-2.97
2019-04-01T04:48:18.846Z,-2.86
2019-04-01T04:50:47.510Z,-2.93
2019-04-01T04:53:16.168Z,-3.13
2019-04-01T04:55:44.852Z,-3.13
2019-04-01T04:58:13.517Z,-3.14
2019-04-01T05:00:42.213Z,-3.00
2019-04-01T05:03:10.880Z,-3.08
2019-04-01T05:05:39.571Z,-2.93
2019-04-01T05:08:08.244Z,-2.86
2019-04-01T05:10:36.905Z,-2.86
2019-04-01T05:13:05.607Z,-2.85
2019-04-01T05:15:34.275Z,-2.83
2019-04-01T05:18:02.968Z,-2.83
2019-04-01T05:20:32.849Z,-2.84
2019-04-01T05:23:03.089Z,-2.82
2019-04-01T05:25:32.424Z,-2.68
2019-04-01T05:28:03.465Z,-2.57
2019-04-01T05:30:34.032Z,-2.54
2019-04-01T05:33:04.271Z,-2.45
2019-04-01T05:35:35.729Z,-2.30
2019-04-01T05:38:05.265Z,-2.21
2019-04-01T05:40:34.794Z,-2.29
2019-04-01T05:43:03.664Z,-2.10
2019-04-01T05:45:32.413Z,-2.05
2019-04-01T05:48:01.233Z,-1.91
2019-04-01T05:50:29.994Z,-1.78
2019-04-01T05:52:58.661Z,-1.54
2019-04-01T05:55:27.316Z,-1.32
2019-04-01T05:57:56.073Z,-1.21
2019-04-01T06:00:30.381Z,-0.97
2019-04-01T06:02:59.340Z,-0.80
2019-04-01T06:05:28.073Z,-0.76
2019-04-01T06:07:56.736Z,-0.64
2019-04-01T06:10:25.459Z,-0.51
2019-04-01T06:12:54.217Z,-0.39
2019-04-01T06:15:22.952Z,-0.19
2019-04-01T06:17:51.824Z,-0.05
2019-04-01T06:20:20.479Z,0.32
2019-04-01T06:22:49.513Z,0.38
2019-04-01T06:25:18.364Z,0.64
2019-04-01T06:27:47.086Z,0.82
2019-04-01T06:30:15.892Z,0.82
2019-04-01T06:32:44.566Z,0.85
2019-04-01T06:35:13.305Z,0.99
2019-04-01T06:37:41.977Z,1.21
2019-04-01T06:40:10.780Z,1.38
2019-04-01T06:42:39.625Z,1.56
2019-04-01T06:45:08.642Z,1.87
2019-04-01T06:47:37.316Z,2.20
2019-04-01T06:50:06.139Z,2.46
2019-04-01T06:52:34.871Z,2.68
2019-04-01T06:55:03.635Z,2.94
2019-04-01T06:57:32.310Z,3.01
2019-04-01T07:00:01.031Z,3.16
2019-04-01T07:02:29.707Z,3.29
2019-04-01T07:04:58.364Z,3.33
2019-04-01T07:07:27.713Z,3.48
2019-04-01T07:09:56.473Z,3.67
2019-04-01T07:12:25.727Z,3.66
2019-04-01T07:14:54.461Z,3.96
2019-04-01T07:17:23.273Z,4.04
2019-04-01T07:19:51.995Z,4.07
2019-04-01T07:22:20.916Z,4.31
2019-04-01T07:24:49.663Z,4.34
2019-04-01T07:27:18.425Z,4.63
2019-04-01T07:29:47.456Z,4.66
2019-04-01T07:32:16.189Z,4.68
2019-04-01T07:34:45.026Z,4.70
2019-04-01T07:37:13.830Z,5.06
2019-04-01T07:39:42.762Z,5.24
2019-04-01T07:42:11.725Z,5.13
2019-04-01T07:44:40.521Z,5.22
2019-04-01T07:47:09.172Z,5.51
2019-04-01T07:49:37.880Z,5.62
2019-04-01T07:52:06.498Z,5.68
2019-04-01T07:54:35.254Z,6.09
2019-04-01T07:57:04.062Z,6.26
2019-04-01T07:59:32.719Z,6.71
2019-04-01T08:02:01.670Z,6.82
2019-04-01T08:04:30.395Z,7.10
2019-04-01T08:06:59.208Z,7.54
2019-04-01T08:09:28.019Z,7.84
2019-04-01T08:11:56.748Z,8.24
2019-04-01T08:14:25.704Z,8.56
2019-04-01T08:16:54.352Z,8.75
2019-04-01T08:19:23.029Z,8.93
2019-04-01T08:21:52.529Z,9.15
2019-04-01T08:24:21.327Z,9.37
2019-04-01T08:26:50.052Z,9.29
2019-04-01T08:29:29.482Z,9.36
2019-04-01T08:31:49.093Z,9.47
2019-04-01T08:34:17.930Z,9.58
2019-04-01T08:36:46.662Z,9.62
2019-04-01T08:39:15.662Z,9.46
2019-04-01T08:41:44.503Z,9.52
2019-04-01T08:44:13.225Z,9.45
2019-04-01T08:46:42.040Z,9.63
2019-04-01T08:49:10.794Z,9.67
2019-04-01T08:51:39.646Z,10.06
2019-04-01T08:54:08.437Z,10.27
2019-04-01T08:56:38.135Z,10.35
2019-04-01T08:59:07.186Z,10.29
2019-04-01T09:01:35.998Z,10.50
2019-04-01T09:04:04.827Z,10.83
2019-04-01T09:06:33.504Z,10.90
2019-04-01T09:09:04.186Z,10.97
2019-04-01T09:11:33.710Z,11.04
2019-04-01T09:14:02.769Z,11.34
2019-04-01T09:16:31.829Z,11.27
2019-04-01T09:19:00.536Z,11.38
2019-04-01T09:21:29.224Z,11.61
2019-04-01T09:23:57.880Z,12.06
2019-04-01T09:26:26.565Z,12.04
2019-04-01T09:28:55.221Z,12.03
2019-04-01T09:31:23.907Z,12.14
2019-04-01T09:33:52.566Z,12.38
2019-04-01T09:36:21.253Z,12.62
2019-04-01T09:38:49.926Z,12.37
2019-04-01T09:41:18.608Z,12.79
2019-04-01T09:43:47.267Z,13.10
2019-04-01T09:46:15.932Z,13.40
2019-04-01T09:48:44.611Z,13.39
2019-04-01T09:51:13.306Z,14.09
2019-04-01T09:53:41.959Z,14.26
2019-04-01T09:56:10.619Z,14.47
2019-04-01T09:58:39.302Z,14.13
2019-04-01T10:01:11.670Z,13.60
2019-04-01T10:03:40.826Z,13.74
2019-04-01T10:06:10.582Z,13.94
2019-04-01T10:08:42.592Z,14.15
2019-04-01T10:11:12.649Z,15.12
2019-04-01T10:13:40.154Z,15.71
2019-04-01T10:16:08.817Z,15.95
2019-04-01T10:18:37.504Z,15.94
2019-04-01T10:21:06.263Z,16.84
2019-04-01T10:23:34.973Z,16.59
2019-04-01T10:26:03.719Z,17.47
2019-04-01T10:28:32.497Z,17.95
2019-04-01T10:31:01.363Z,18.11
2019-04-01T10:33:30.024Z,19.13
2019-04-01T10:35:58.693Z,19.65
2019-04-01T10:38:27.370Z,18.41
2019-04-01T10:40:56.075Z,17.66
2019-04-01T10:43:24.836Z,18.04
2019-04-01T10:45:53.557Z,18.59
2019-04-01T10:48:22.287Z,17.60
2019-04-01T10:50:50.909Z,17.96
2019-04-01T10:53:19.608Z,16.82
2019-04-01T10:55:48.375Z,16.94
2019-04-01T10:58:17.088Z,17.84
2019-04-01T11:00:45.754Z,18.56
2019-04-01T11:03:14.579Z,18.50
2019-04-01T11:05:43.434Z,17.67
2019-04-01T11:08:12.243Z,18.12
2019-04-01T11:10:40.949Z,18.60
2019-04-01T11:13:09.650Z,18.60
2019-04-01T11:15:38.326Z,18.38
2019-04-01T11:18:07.065Z,19.10
2019-04-01T11:20:36.153Z,19.43
2019-04-01T11:23:05.628Z,18.90
2019-04-01T11:25:34.353Z,19.61
2019-04-01T11:28:03.046Z,21.09
2019-04-01T11:30:31.835Z,20.59
2019-04-01T11:33:00.582Z,21.18
2019-04-01T11:35:29.303Z,22.08
2019-04-01T11:37:57.994Z,21.72
2019-04-01T11:40:26.751Z,22.38
2019-04-01T11:42:55.449Z,21.95
2019-04-01T11:45:24.220Z,20.98
2019-04-01T11:47:52.908Z,21.71
2019-04-01T11:50:21.698Z,22.19
2019-04-01T11:52:50.511Z,21.54
2019-04-01T11:55:19.185Z,22.38
2019-04-01T11:57:47.852Z,23.26
2019-04-01T12:00:18.100Z,22.78
2019-04-01T12:02:46.768Z,24.35
2019-04-01T12:05:15.594Z,25.89
2019-04-01T12:07:44.439Z,26.58
2019-04-01T12:10:13.259Z,24.56
2019-04-01T12:12:41.939Z,25.29
2019-04-01T12:15:12.297Z,24.93
2019-04-01T12:17:42.063Z,25.48
2019-04-01T12:20:11.095Z,24.61
2019-04-01T12:22:40.788Z,26.52
2019-04-01T12:25:10.324Z,26.80
2019-04-01T12:27:38.976Z,26.72
2019-04-01T12:30:08.933Z,24.75
2019-04-01T12:32:37.636Z,26.45
2019-04-01T12:35:06.544Z,25.87
2019-04-01T12:37:35.219Z,26.12
2019-04-01T12:40:04.241Z,26.75
2019-04-01T12:42:32.949Z,25.05
2019-04-01T12:45:01.591Z,24.72
2019-04-01T12:47:30.240Z,25.65
2019-04-01T12:49:58.927Z,25.26
2019-04-01T12:52:27.584Z,25.58
2019-04-01T12:54:56.259Z,27.14
2019-04-01T12:57:24.933Z,26.65
2019-04-01T12:59:53.838Z,27.62
2019-04-01T13:02:22.549Z,28.51
2019-04-01T13:04:51.622Z,26.74
2019-04-01T13:07:20.789Z,26.24
2019-04-01T13:09:49.506Z,25.08
2019-04-01T13:12:18.234Z,25.78
2019-04-01T13:14:46.873Z,27.18
2019-04-01T13:17:15.535Z,27.59
2019-04-01T13:19:45.036Z,28.12
2019-04-01T13:22:14.140Z,28.46
2019-04-01T13:24:42.827Z,26.80
2019-04-01T13:27:11.506Z,26.86
2019-04-01T13:29:40.162Z,27.09
2019-04-01T13:32:08.833Z,25.67
2019-04-01T13:34:37.492Z,24.28
2019-04-01T13:37:06.176Z,24.88
2019-04-01T13:39:34.915Z,25.39
2019-04-01T13:42:03.694Z,26.07
2019-04-01T13:44:37.236Z,26.02
2019-04-01T13:47:02.732Z,24.45
2019-04-01T13:49:31.415Z,25.98
2019-04-01T13:52:03.507Z,25.45
2019-04-01T13:54:30.506Z,26.69
2019-04-01T13:56:59.338Z,27.61
2019-04-01T13:59:27.993Z,28.41
2019-04-01T14:01:57.112Z,27.10
2019-04-01T14:04:27.304Z,27.04
2019-04-01T14:06:56.173Z,27.10
2019-04-01T14:09:24.829Z,25.67
2019-04-01T14:11:53.505Z,25.48
2019-04-01T14:14:22.193Z,25.27
2019-04-01T14:16:50.920Z,27.64
2019-04-01T14:19:19.606Z,28.73
2019-04-01T14:21:48.302Z,28.34
2019-04-01T14:24:16.978Z,27.10
2019-04-01T14:26:45.659Z,26.70
2019-04-01T14:29:16.456Z,26.68
2019-04-01T14:31:44.739Z,27.72
2019-04-01T14:34:22.440Z,27.00
2019-04-01T14:36:43.803Z,27.63
2019-04-01T14:39:12.553Z,27.62
2019-04-01T14:41:41.242Z,28.16
2019-04-01T14:44:09.895Z,26.67
2019-04-01T14:46:38.552Z,27.55
2019-04-01T14:49:07.239Z,30.47
2019-04-01T14:51:35.903Z,28.96
2019-04-01T14:54:05.884Z,28.14
2019-04-01T14:56:34.690Z,27.81
2019-04-01T14:59:03.380Z,26.63
2019-04-01T15:01:32.107Z,26.62
2019-04-01T15:04:00.772Z,26.79
2019-04-01T15:06:29.547Z,27.24
2019-04-01T15:08:58.211Z,27.46
2019-04-01T15:11:26.875Z,29.14
2019-04-01T15:13:55.555Z,27.81
2019-04-01T15:16:24.238Z,28.97
2019-04-01T15:18:53.752Z,27.63
2019-04-01T15:21:22.438Z,27.39
2019-04-01T15:23:53.258Z,27.08
2019-04-01T15:26:21.536Z,26.78
2019-04-01T15:28:50.219Z,27.12
2019-04-01T15:31:18.884Z,28.37
2019-04-01T15:33:47.549Z,26.75
2019-04-01T15:36:16.246Z,27.04
2019-04-01T15:38:44.900Z,26.34
2019-04-01T15:41:13.559Z,25.79
2019-04-01T15:43:42.244Z,25.71
2019-04-01T15:46:10.940Z,25.66
2019-04-01T15:48:39.670Z,25.35
2019-04-01T15:51:08.330Z,25.35
2019-04-01T15:53:37.012Z,25.64
2019-04-01T15:56:05.686Z,26.31
2019-04-01T15:58:35.038Z,26.72
2019-04-01T16:01:03.872Z,26.15
2019-04-01T16:03:33.115Z,26.20
2019-04-01T16:06:02.963Z,25.48
2019-04-01T16:08:32.359Z,25.92
2019-04-01T16:11:01.055Z,25.56
2019-04-01T16:13:29.906Z,26.58
2019-04-01T16:15:58.977Z,25.89
2019-04-01T16:18:27.658Z,26.13
2019-04-01T16:20:59.333Z,26.25
2019-04-01T16:23:27.141Z,26.78
2019-04-01T16:25:56.176Z,25.92
2019-04-01T16:28:24.869Z,26.02
2019-04-01T16:30:53.526Z,24.47
2019-04-01T16:33:22.788Z,24.58
2019-04-01T16:35:52.380Z,24.91
2019-04-01T16:38:21.094Z,24.50
2019-04-01T16:40:52.434Z,24.42
2019-04-01T16:43:20.225Z,23.09
2019-04-01T16:45:49.219Z,23.60
2019-04-01T16:48:17.872Z,23.72
2019-04-01T16:50:46.688Z,24.17
2019-04-01T16:53:15.375Z,23.35
2019-04-01T16:55:44.063Z,23.83
2019-04-01T16:58:12.806Z,23.54
2019-04-01T17:00:41.624Z,23.06
2019-04-01T17:03:13.411Z,22.46
2019-04-01T17:05:40.778Z,21.62
2019-04-01T17:08:10.342Z,21.08
2019-04-01T17:10:39.229Z,20.97
2019-04-01T17:13:08.740Z,20.59
2019-04-01T17:15:37.667Z,20.68
2019-04-01T17:18:06.397Z,18.97
2019-04-01T17:20:36.523Z,15.98
2019-04-01T17:23:05.390Z,14.19
2019-04-01T17:25:34.199Z,13.31
2019-04-01T17:28:02.860Z,12.46
2019-04-01T17:30:31.667Z,11.99
2019-04-01T17:33:00.344Z,11.52
2019-04-01T17:35:29.071Z,11.19
2019-04-01T17:37:57.759Z,10.95
2019-04-01T17:40:26.431Z,10.72
2019-04-01T17:42:55.087Z,10.61
2019-04-01T17:45:35.861Z,10.45
2019-04-01T17:48:05.539Z,10.25
2019-04-01T17:50:34.386Z,9.96
2019-04-01T17:53:04.773Z,9.73
2019-04-01T17:55:33.494Z,9.51
2019-04-01T17:58:02.167Z,9.46
2019-04-01T18:00:31.651Z,9.31
2019-04-01T18:03:00.304Z,9.30
2019-04-01T18:05:28.965Z,9.15
2019-04-01T18:07:57.648Z,8.82
2019-04-01T18:10:28.115Z,8.58
2019-04-01T18:12:56.911Z,8.41
2019-04-01T18:15:25.597Z,8.18
2019-04-01T18:17:54.264Z,7.87
2019-04-01T18:20:22.910Z,7.74
2019-04-01T18:22:51.595Z,7.54
2019-04-01T18:25:21.216Z,7.42
2019-04-01T18:27:50.203Z,7.07
2019-04-01T18:30:19.630Z,6.92
2019-04-01T18:32:52.104Z,7.01
2019-04-01T18:35:18.775Z,7.04
2019-04-01T18:37:48.335Z,7.07
2019-04-01T18:40:31.499Z,6.90
2019-04-01T18:42:48.365Z,6.98
2019-04-01T18:45:17.158Z,6.84
2019-04-01T18:47:45.811Z,6.75
2019-04-01T18:50:14.769Z,6.48
2019-04-01T18:52:43.588Z,6.02
2019-04-01T18:55:12.341Z,6.00
2019-04-01T18:57:40.996Z,5.73
2019-04-01T19:00:10.942Z,5.72
2019-04-01T19:02:39.593Z,5.48
2019-04-01T19:05:10.196Z,5.31
2019-04-01T19:07:39.086Z,5.02
2019-04-01T19:10:08.109Z,4.85
2019-04-01T19:12:36.793Z,4.94
2019-04-01T19:15:06.597Z,4.89
2019-04-01T19:17:35.368Z,4.73
2019-04-01T19:20:04.816Z,4.69
2019-04-01T19:22:33.544Z,4.57
2019-04-01T19:25:02.228Z,4.39
2019-04-01T19:27:30.905Z,4.30
2019-04-01T19:29:59.572Z,4.14
2019-04-01T19:32:28.339Z,4.09
2019-04-01T19:34:57.016Z,3.89
2019-04-01T19:37:27.216Z,3.92
2019-04-01T19:39:56.052Z,3.77
2019-04-01T19:42:24.712Z,3.76
2019-04-01T19:44:53.404Z,3.73
2019-04-01T19:47:22.181Z,3.59
2019-04-01T19:49:51.150Z,3.72
2019-04-01T19:52:19.842Z,3.67
2019-04-01T19:54:48.495Z,3.50
2019-04-01T19:57:17.255Z,3.59
2019-04-01T19:59:45.939Z,3.46
2019-04-01T20:02:14.668Z,3.54
2019-04-01T20:04:43.320Z,3.50
2019-04-01T20:07:12.005Z,3.43
2019-04-01T20:09:40.661Z,3.39
2019-04-01T20:12:09.372Z,3.36
2019-04-01T20:14:38.036Z,3.25
2019-04-01T20:17:06.846Z,3.39
2019-04-01T20:19:35.540Z,3.36
2019-04-01T20:22:04.455Z,3.31
2019-04-01T20:24:33.119Z,3.23
2019-04-01T20:27:01.804Z,3.19
2019-04-01T20:29:30.568Z,3.41
2019-04-01T20:31:59.196Z,3.38
2019-04-01T20:34:27.900Z,3.37
2019-04-01T20:36:56.546Z,3.25
2019-04-01T20:39:25.577Z,3.24
2019-04-01T20:41:54.454Z,3.26
2019-04-01T20:44:23.131Z,3.32
2019-04-01T20:46:51.813Z,3.23
2019-04-01T20:49:20.489Z,3.17
2019-04-01T20:51:49.167Z,3.24
2019-04-01T20:54:17.822Z,3.19
2019-04-01T20:56:46.502Z,3.18
2019-04-01T20:59:15.575Z,3.11
2019-04-01T21:01:44.204Z,3.19
2019-04-01T21:04:12.862Z,3.06
2019-04-01T21:06:41.549Z,2.96
2019-04-01T21:09:10.212Z,3.07
2019-04-01T21:11:39.253Z,3.01
2019-04-01T21:14:08.755Z,2.89
2019-04-01T21:16:37.419Z,2.95
2019-04-01T21:19:06.479Z,2.92
2019-04-01T21:21:35.184Z,2.84
2019-04-01T21:24:05.199Z,2.85
2019-04-01T21:26:33.953Z,2.78
2019-04-01T21:29:02.734Z,2.71
2019-04-01T21:31:31.388Z,2.73
2019-04-01T21:34:00.047Z,2.72
2019-04-01T21:36:28.731Z,2.55
2019-04-01T21:38:57.412Z,2.54
2019-04-01T21:41:26.105Z,2.46
2019-04-01T21:43:54.763Z,2.41
2019-04-01T21:46:24.399Z,2.34
2019-04-01T21:48:53.155Z,2.12
2019-04-01T21:51:21.819Z,2.00
2019-04-01T21:53:50.475Z,1.98
2019-04-01T21:56:19.163Z,1.97
2019-04-01T21:58:48.233Z,2.00
2019-04-01T22:01:17.928Z,1.95
2019-04-01T22:03:46.600Z,1.87
2019-04-01T22:06:15.362Z,1.87
2019-04-01T22:08:44.041Z,1.92
2019-04-01T22:11:12.703Z,1.97
2019-04-01T22:13:41.352Z,1.83
2019-04-01T22:16:10.031Z,1.81
2019-04-01T22:18:38.685Z,1.77
2019-04-01T22:21:07.333Z,1.73
2019-04-01T22:23:36.002Z,1.65
2019-04-01T22:26:04.733Z,1.64
2019-04-01T22:28:33.505Z,1.67
2019-04-01T22:31:02.380Z,1.73
2019-04-01T22:33:31.023Z,1.72
2019-04-01T22:35:59.673Z,1.58
2019-04-01T22:38:28.359Z,1.59
2019-04-01T22:40:57.006Z,1.47
2019-04-01T22:43:25.821Z,1.37
2019-04-01T22:45:54.499Z,1.34
2019-04-01T22:48:23.158Z,1.36
2019-04-01T22:50:51.801Z,1.29
2019-04-01T22:53:20.464Z,1.20
2019-04-01T22:55:49.170Z,1.26
2019-04-01T22:58:17.830Z,1.23
2019-04-01T23:00:47.181Z,1.28
2019-04-01T23:03:16.360Z,1.18
2019-04-01T23:05:45.002Z,1.11
2019-04-01T23:08:13.730Z,1.11
2019-04-01T23:10:42.404Z,1.08
2019-04-01T23:13:11.088Z,1.03
2019-04-01T23:15:39.736Z,1.14
2019-04-01T23:18:08.385Z,1.34
2019-04-01T23:20:37.063Z,1.14
2019-04-01T23:23:05.710Z,1.26
2019-04-01T23:25:34.391Z,1.20
2019-04-01T23:28:03.064Z,1.18
2019-04-01T23:30:31.746Z,0.96
2019-04-01T23:33:00.426Z,0.64
2019-04-01T23:35:29.105Z,0.63
2019-04-01T23:37:57.757Z,0.55
2019-04-01T23:40:26.409Z,0.48
2019-04-01T23:42:55.111Z,0.33
2019-04-01T23:45:23.756Z,0.08
2019-04-01T23:47:52.412Z,0.15
2019-04-01T23:50:21.082Z,0.14
2019-04-01T23:52:49.735Z,0.18
2019-04-01T23:55:18.413Z,0.18
2019-04-01T23:57:47.079Z,0.01
